Terminal Aerodrome Forecast
Issued by NWS

Home | Current Version | Previous Version | Text Only | Print | Product List | Glossary On
Versions: 1 2 3 4 5 6 7 8 9 10 11 12 13
979
FTUS45 KVEF 291120
TAFVGT
TAF
KVGT 291120Z 2912/3012 33006KT P6SM SKC
     FM291600 09006KT P6SM SKC
     FM292100 15007KT P6SM SKC
     FM300400 33006KT P6SM SCT250=

USA.gov is the U.S. government's official web portal to all federal, state and local government web resources and services.